createdAt,value
2023-04-17T00:01:55.901Z,98675.34
2023-04-17T00:04:23.430Z,98673.74
2023-04-17T00:06:54.154Z,98671.23
2023-04-17T00:09:21.516Z,98670.84
2023-04-17T00:11:48.763Z,98670.09
2023-04-17T00:14:17.640Z,98664.15
2023-04-17T00:16:46.634Z,98664.30
2023-04-17T00:19:15.678Z,98663.98
2023-04-17T00:21:46.102Z,98665.16
2023-04-17T00:24:21.435Z,98667.86
2023-04-17T00:26:51.902Z,98666.95
2023-04-17T00:29:20.830Z,98666.73
2023-04-17T00:31:51.460Z,98667.47
2023-04-17T00:34:22.826Z,98667.64
2023-04-17T00:36:51.297Z,98666.79
2023-04-17T00:39:26.403Z,98669.55
2023-04-17T00:41:53.381Z,98666.00
2023-04-17T00:44:20.483Z,98665.15
2023-04-17T00:46:47.661Z,98668.85
2023-04-17T00:49:14.889Z,98670.64
2023-04-17T00:51:42.259Z,98676.92
2023-04-17T00:54:10.996Z,98679.76
2023-04-17T00:56:38.692Z,98678.48
2023-04-17T00:59:08.083Z,98677.88
2023-04-17T01:01:34.989Z,98678.88
2023-04-17T01:04:02.493Z,98682.55
2023-04-17T01:06:29.524Z,98682.98
2023-04-17T01:08:57.236Z,98685.16
2023-04-17T01:11:24.461Z,98686.81
2023-04-17T01:13:52.193Z,98680.98
2023-04-17T01:16:20.000Z,98683.91
2023-04-17T01:18:48.640Z,98686.52
2023-04-17T01:21:16.999Z,98688.90
2023-04-17T01:23:52.021Z,98688.40
2023-04-17T01:26:21.664Z,98686.78
2023-04-17T01:28:59.925Z,98683.30
2023-04-17T01:31:30.699Z,98683.60
2023-04-17T01:33:57.975Z,98679.01
2023-04-17T01:36:24.898Z,98676.74
2023-04-17T01:39:00.532Z,98677.80
2023-04-17T01:41:34.459Z,98676.00
2023-04-17T01:44:09.570Z,98669.34
2023-04-17T01:46:36.534Z,98671.16
2023-04-17T01:49:03.616Z,98670.91
2023-04-17T01:51:31.524Z,98672.34
2023-04-17T01:53:58.479Z,98669.30
2023-04-17T01:56:26.308Z,98668.21
2023-04-17T01:58:53.800Z,98670.00
2023-04-17T02:01:20.974Z,98671.77
2023-04-17T02:03:48.182Z,98674.77
2023-04-17T02:06:16.663Z,98676.33
2023-04-17T02:08:43.756Z,98685.77
2023-04-17T02:11:10.964Z,98689.83
2023-04-17T02:13:37.853Z,98687.41
2023-04-17T02:16:05.392Z,98683.35
2023-04-17T02:18:32.299Z,98685.14
2023-04-17T02:20:59.359Z,98686.54
2023-04-17T02:23:26.395Z,98686.27
2023-04-17T02:25:53.233Z,98686.11
2023-04-17T02:28:20.314Z,98683.15
2023-04-17T02:30:47.672Z,98681.36
2023-04-17T02:33:14.672Z,98678.65
2023-04-17T02:35:41.932Z,98681.16
2023-04-17T02:38:09.325Z,98681.37
2023-04-17T02:40:36.557Z,98681.17
2023-04-17T02:43:03.583Z,98678.85
2023-04-17T02:45:31.232Z,98681.02
2023-04-17T02:47:58.334Z,98682.39
2023-04-17T02:50:25.564Z,98680.25
2023-04-17T02:52:52.582Z,98686.39
2023-04-17T02:55:20.051Z,98684.13
2023-04-17T02:57:47.196Z,98689.86
2023-04-17T03:00:15.196Z,98691.70
2023-04-17T03:02:42.424Z,98693.05
2023-04-17T03:05:11.760Z,98694.02
2023-04-17T03:07:38.841Z,98691.94
2023-04-17T03:10:06.746Z,98688.11
2023-04-17T03:12:34.074Z,98691.27
2023-04-17T03:15:02.187Z,98690.71
2023-04-17T03:17:29.296Z,98689.59
2023-04-17T03:19:56.600Z,98693.80
2023-04-17T03:22:23.670Z,98696.77
2023-04-17T03:24:50.822Z,98699.66
2023-04-17T03:27:24.554Z,98697.41
2023-04-17T03:29:52.777Z,98696.30
2023-04-17T03:32:19.934Z,98696.46
2023-04-17T03:34:47.919Z,98699.08
2023-04-17T03:37:14.752Z,98698.43
2023-04-17T03:39:42.245Z,98699.79
2023-04-17T03:42:12.424Z,98706.69
2023-04-17T03:44:40.051Z,98712.52
2023-04-17T03:47:07.406Z,98716.98
2023-04-17T03:49:34.486Z,98715.46
2023-04-17T03:52:04.397Z,98718.80
2023-04-17T03:54:35.945Z,98720.96
2023-04-17T03:57:04.002Z,98719.51
2023-04-17T03:59:32.188Z,98720.27
2023-04-17T04:01:59.783Z,98723.88
2023-04-17T04:04:26.994Z,98725.11
2023-04-17T04:06:58.172Z,98729.27
2023-04-17T04:09:28.448Z,98729.66
2023-04-17T04:11:55.326Z,98732.85
2023-04-17T04:14:22.234Z,98731.62
2023-04-17T04:16:49.608Z,98731.55
2023-04-17T04:19:16.525Z,98736.96
2023-04-17T04:21:43.881Z,98738.36
2023-04-17T04:24:13.601Z,98732.77
2023-04-17T04:26:43.852Z,98739.22
2023-04-17T04:29:12.139Z,98742.63
2023-04-17T04:31:40.203Z,98741.52
2023-04-17T04:34:08.127Z,98736.53
2023-04-17T04:36:42.155Z,98738.48
2023-04-17T04:39:09.800Z,98744.48
2023-04-17T04:41:37.486Z,98741.89
2023-04-17T04:44:04.490Z,98744.92
2023-04-17T04:46:31.393Z,98747.23
2023-04-17T04:48:58.204Z,98753.23
2023-04-17T04:51:25.245Z,98750.08
2023-04-17T04:53:52.295Z,98747.81
2023-04-17T04:56:19.305Z,98746.40
2023-04-17T04:58:46.655Z,98747.46
2023-04-17T05:01:13.732Z,98744.73
2023-04-17T05:03:41.347Z,98748.79
2023-04-17T05:06:09.741Z,98752.14
2023-04-17T05:08:36.583Z,98755.29
2023-04-17T05:11:04.169Z,98757.46
2023-04-17T05:13:31.010Z,98760.15
2023-04-17T05:16:00.196Z,98755.19
2023-04-17T05:18:28.513Z,98755.42
2023-04-17T05:20:55.811Z,98761.75
2023-04-17T05:23:23.686Z,98764.59
2023-04-17T05:25:51.281Z,98764.52
2023-04-17T05:28:18.270Z,98769.80
2023-04-17T05:30:45.624Z,98769.11
2023-04-17T05:33:13.128Z,98771.60
2023-04-17T05:35:40.100Z,98772.30
2023-04-17T05:38:08.366Z,98772.05
2023-04-17T05:40:35.928Z,98768.23
2023-04-17T05:43:10.565Z,98767.98
2023-04-17T05:45:38.172Z,98769.17
2023-04-17T05:48:06.255Z,98771.92
2023-04-17T05:50:33.543Z,98770.29
2023-04-17T05:53:01.120Z,98768.74
2023-04-17T05:55:28.361Z,98768.77
2023-04-17T05:57:58.025Z,98766.48
2023-04-17T06:00:25.609Z,98771.88
2023-04-17T06:02:52.613Z,98769.08
2023-04-17T06:05:21.492Z,98769.39
2023-04-17T06:07:48.639Z,98771.58
2023-04-17T06:10:15.927Z,98770.84
2023-04-17T06:12:43.310Z,98770.06
2023-04-17T06:15:11.212Z,98775.02
2023-04-17T06:17:39.457Z,98778.71
2023-04-17T06:20:10.592Z,98782.14
2023-04-17T06:22:39.143Z,98779.75
2023-04-17T06:25:07.363Z,98784.50
2023-04-17T06:27:36.728Z,98777.70
2023-04-17T06:30:05.853Z,98782.38
2023-04-17T06:32:33.334Z,98786.48
2023-04-17T06:35:00.596Z,98785.19
2023-04-17T06:37:27.903Z,98784.01
2023-04-17T06:39:55.056Z,98781.80
2023-04-17T06:42:22.168Z,98781.70
2023-04-17T06:44:49.138Z,98777.27
2023-04-17T06:47:16.283Z,98782.11
2023-04-17T06:49:43.286Z,98785.00
2023-04-17T06:52:10.281Z,98776.31
2023-04-17T06:54:37.376Z,98781.90
2023-04-17T06:57:06.680Z,98785.96
2023-04-17T06:59:34.719Z,98787.89
2023-04-17T07:02:03.743Z,98791.69
2023-04-17T07:04:32.201Z,98796.63
2023-04-17T07:07:00.100Z,98801.83
2023-04-17T07:09:28.157Z,98803.16
2023-04-17T07:11:55.547Z,98805.86
2023-04-17T07:14:23.318Z,98805.73
2023-04-17T07:16:50.848Z,98808.60
2023-04-17T07:19:18.248Z,98815.92
2023-04-17T07:21:46.005Z,98819.20
2023-04-17T07:24:13.361Z,98818.61
2023-04-17T07:26:41.087Z,98825.37
2023-04-17T07:29:08.029Z,98824.05
2023-04-17T07:31:35.644Z,98824.52
2023-04-17T07:34:02.807Z,98824.73
2023-04-17T07:36:30.336Z,98827.15
2023-04-17T07:38:58.095Z,98830.60
2023-04-17T07:41:26.018Z,98829.92
2023-04-17T07:43:53.052Z,98833.28
2023-04-17T07:46:20.159Z,98836.02
2023-04-17T07:48:47.542Z,98838.63
2023-04-17T07:51:14.565Z,98837.20
2023-04-17T07:53:41.847Z,98838.40
2023-04-17T07:56:09.950Z,98846.34
2023-04-17T07:58:38.687Z,98843.41
2023-04-17T08:01:06.490Z,98846.26
2023-04-17T08:03:34.454Z,98843.80
2023-04-17T08:06:02.345Z,98836.69
2023-04-17T08:08:29.924Z,98838.55
2023-04-17T08:10:57.121Z,98839.40
2023-04-17T08:13:24.405Z,98839.98
2023-04-17T08:15:52.599Z,98842.12
2023-04-17T08:18:19.650Z,98841.66
2023-04-17T08:20:46.930Z,98842.90
2023-04-17T08:23:14.261Z,98843.92
2023-04-17T08:25:41.349Z,98847.05
2023-04-17T08:28:08.814Z,98850.14
2023-04-17T08:30:36.329Z,98848.95
2023-04-17T08:33:03.726Z,98849.67
2023-04-17T08:35:31.170Z,98849.63
2023-04-17T08:38:33.465Z,98848.21
2023-04-17T08:44:00.251Z,98848.45
2023-04-17T08:46:28.659Z,98847.96
2023-04-17T08:48:56.327Z,98846.36
2023-04-17T08:51:28.287Z,98846.13
2023-04-17T08:53:55.799Z,98841.23
2023-04-17T08:56:23.220Z,98838.68
2023-04-17T08:58:50.805Z,98842.58
2023-04-17T09:01:19.012Z,98842.27
2023-04-17T09:03:48.955Z,98834.54
2023-04-17T09:06:16.807Z,98833.32
2023-04-17T09:09:02.100Z,98830.98
2023-04-17T09:11:29.448Z,98834.15
2023-04-17T09:13:56.669Z,98833.59
2023-04-17T09:16:26.029Z,98836.95
2023-04-17T09:19:06.312Z,98834.20
2023-04-17T09:21:33.583Z,98831.77
2023-04-17T09:24:00.836Z,98832.67
2023-04-17T09:26:31.977Z,98832.02
2023-04-17T09:29:14.910Z,98830.19
2023-04-17T09:31:43.403Z,98828.93
2023-04-17T09:34:12.689Z,98827.85
2023-04-17T09:36:42.051Z,98821.53
2023-04-17T09:39:30.037Z,98823.54
2023-04-17T09:42:14.154Z,98822.77
2023-04-17T09:44:44.237Z,98822.70
2023-04-17T09:47:26.260Z,98820.60
2023-04-17T09:50:02.100Z,98821.98
2023-04-17T09:52:33.755Z,98817.32
2023-04-17T09:55:16.680Z,98816.59
2023-04-17T09:57:44.695Z,98816.98
2023-04-17T10:00:15.230Z,98815.22
2023-04-17T10:02:43.281Z,98813.11
2023-04-17T10:05:14.173Z,98812.77
2023-04-17T10:07:41.520Z,98806.77
2023-04-17T10:10:34.447Z,98805.08
2023-04-17T10:13:04.098Z,98803.32
2023-04-17T10:15:32.743Z,98799.09
2023-04-17T10:18:19.894Z,98797.60
2023-04-17T10:20:48.888Z,98798.45
2023-04-17T10:23:33.544Z,98796.59
2023-04-17T10:26:27.888Z,98800.67
2023-04-17T10:28:58.062Z,98795.27
2023-04-17T10:32:04.198Z,98793.42
2023-04-17T10:34:38.907Z,98791.81
2023-04-17T10:37:06.580Z,98788.40
2023-04-17T10:39:57.634Z,98783.88
2023-04-17T10:42:26.311Z,98778.90
2023-04-17T10:44:58.952Z,98776.07
2023-04-17T10:47:36.008Z,98773.94
2023-04-17T10:50:05.124Z,98772.83
2023-04-17T10:52:35.281Z,98766.23
2023-04-17T10:55:27.659Z,98754.94
2023-04-17T10:57:58.475Z,98752.11
2023-04-17T11:00:37.047Z,98750.94
2023-04-17T11:03:06.612Z,98754.40
2023-04-17T11:05:36.156Z,98757.23
2023-04-17T11:08:03.779Z,98759.66
2023-04-17T11:10:31.471Z,98764.08
2023-04-17T11:13:13.489Z,98764.11
2023-04-17T11:15:40.730Z,98763.39
2023-04-17T11:18:08.876Z,98761.92
2023-04-17T11:20:38.345Z,98762.46
2023-04-17T11:23:06.765Z,98755.40
2023-04-17T11:25:34.986Z,98762.11
2023-04-17T11:28:04.279Z,98774.96
2023-04-17T11:30:35.529Z,98789.73
2023-04-17T11:33:08.032Z,98796.73
2023-04-17T11:35:40.428Z,98798.19
2023-04-17T11:38:11.646Z,98801.09
2023-04-17T11:40:43.856Z,98806.17
2023-04-17T11:43:12.511Z,98807.61
2023-04-17T11:45:42.341Z,98806.08
2023-04-17T11:48:11.995Z,98806.83
2023-04-17T11:50:41.230Z,98810.09
2023-04-17T11:53:08.677Z,98813.92
2023-04-17T11:55:36.900Z,98811.83
2023-04-17T11:58:08.102Z,98811.98
2023-04-17T12:00:36.332Z,98810.85
2023-04-17T12:03:04.781Z,98810.94
2023-04-17T12:05:32.055Z,98811.77
2023-04-17T12:08:08.671Z,98813.21
2023-04-17T12:10:39.813Z,98816.85
2023-04-17T12:13:07.493Z,98810.98
2023-04-17T12:15:35.788Z,98812.77
2023-04-17T12:18:07.323Z,98814.13
2023-04-17T12:20:36.672Z,98810.59
2023-04-17T12:23:05.649Z,98806.23
2023-04-17T12:25:34.069Z,98802.87
2023-04-17T12:28:05.004Z,98806.28
2023-04-17T12:30:33.869Z,98809.67
2023-04-17T12:33:01.416Z,98810.39
2023-04-17T12:35:28.850Z,98814.25
2023-04-17T12:37:55.831Z,98816.86
2023-04-17T12:40:25.346Z,98814.28
2023-04-17T12:42:52.384Z,98812.89
2023-04-17T12:45:20.182Z,98818.13
2023-04-17T12:47:48.329Z,98820.98
2023-04-17T12:50:15.694Z,98820.34
2023-04-17T12:52:43.531Z,98820.90
2023-04-17T12:55:11.553Z,98818.25
2023-04-17T12:57:38.653Z,98809.95
2023-04-17T13:00:07.661Z,98811.27
2023-04-17T13:02:34.954Z,98806.79
2023-04-17T13:05:03.071Z,98808.95
2023-04-17T13:07:31.090Z,98808.48
2023-04-17T13:09:58.060Z,98806.42
2023-04-17T13:12:26.502Z,98807.77
2023-04-17T13:14:54.206Z,98805.82
2023-04-17T13:17:22.042Z,98803.80
2023-04-17T13:19:49.138Z,98804.83
2023-04-17T13:22:18.839Z,98807.11
2023-04-17T13:24:45.777Z,98807.52
2023-04-17T13:27:12.600Z,98806.18
2023-04-17T13:29:39.546Z,98804.70
2023-04-17T13:32:06.686Z,98805.53
2023-04-17T13:34:34.091Z,98805.48
2023-04-17T13:37:01.369Z,98808.75
2023-04-17T13:39:28.833Z,98807.92
2023-04-17T13:41:58.230Z,98810.09
2023-04-17T13:44:34.514Z,98809.94
2023-04-17T13:47:03.893Z,98809.94
2023-04-17T13:49:31.529Z,98811.14
2023-04-17T13:51:58.651Z,98808.79
2023-04-17T13:54:26.072Z,98807.38
2023-04-17T13:56:54.365Z,98808.27
2023-04-17T13:59:21.610Z,98811.46
2023-04-17T14:01:48.871Z,98809.89
2023-04-17T14:04:17.181Z,98810.14
2023-04-17T14:06:44.790Z,98813.94
2023-04-17T14:09:12.273Z,98813.49
2023-04-17T14:11:39.605Z,98815.21
2023-04-17T14:14:06.947Z,98813.40
2023-04-17T14:16:34.403Z,98813.31
2023-04-17T14:19:12.680Z,98816.56
2023-04-17T14:21:42.255Z,98817.30
2023-04-17T14:24:10.141Z,98815.67
2023-04-17T14:26:37.962Z,98817.42
2023-04-17T14:29:04.988Z,98816.33
2023-04-17T14:31:32.171Z,98819.39
2023-04-17T14:33:59.595Z,98817.71
2023-04-17T14:36:27.128Z,98818.91
2023-04-17T14:38:54.699Z,98823.22
2023-04-17T14:41:21.771Z,98816.48
2023-04-17T14:43:48.743Z,98818.00
2023-04-17T14:46:15.817Z,98815.84
2023-04-17T14:48:55.031Z,98819.16
2023-04-17T14:51:27.483Z,98813.20
2023-04-17T14:53:54.783Z,98811.43
2023-04-17T14:56:22.112Z,98810.73
2023-04-17T14:58:50.009Z,98809.71
2023-04-17T15:01:17.660Z,98810.73
2023-04-17T15:03:47.679Z,98810.15
2023-04-17T15:06:20.752Z,98811.48
2023-04-17T15:08:48.538Z,98810.45
2023-04-17T15:11:16.132Z,98809.39
2023-04-17T15:13:43.148Z,98806.48
2023-04-17T15:16:11.042Z,98807.58
2023-04-17T15:18:39.684Z,98808.05
2023-04-17T15:21:06.820Z,98806.52
2023-04-17T15:23:34.931Z,98803.34
2023-04-17T15:26:02.245Z,98802.54
2023-04-17T15:28:29.523Z,98800.36
2023-04-17T15:30:57.178Z,98799.06
2023-04-17T15:33:24.085Z,98796.05
2023-04-17T15:35:59.282Z,98800.36
2023-04-17T15:38:27.250Z,98800.98
2023-04-17T15:40:55.120Z,98801.70
2023-04-17T15:43:22.317Z,98800.91
2023-04-17T15:45:49.731Z,98796.02
2023-04-17T15:48:16.632Z,98800.10
2023-04-17T15:50:43.785Z,98793.98
2023-04-17T15:53:10.614Z,98800.36
2023-04-17T15:55:38.740Z,98793.61
2023-04-17T15:58:05.707Z,98797.77
2023-04-17T16:00:34.252Z,98800.48
2023-04-17T16:03:01.473Z,98800.43
2023-04-17T16:05:30.544Z,98804.11
2023-04-17T16:07:57.982Z,98803.58
2023-04-17T16:10:25.150Z,98810.05
2023-04-17T16:12:52.047Z,98806.75
2023-04-17T16:15:24.100Z,98807.48
2023-04-17T16:17:51.189Z,98810.14
2023-04-17T16:20:18.190Z,98807.27
2023-04-17T16:22:45.150Z,98807.06
2023-04-17T16:25:12.547Z,98802.92
2023-04-17T16:27:40.729Z,98808.29
2023-04-17T16:30:09.358Z,98804.63
2023-04-17T16:32:36.480Z,98807.95
2023-04-17T16:35:03.494Z,98804.10
2023-04-17T16:37:30.575Z,98806.69
2023-04-17T16:39:57.487Z,98812.38
2023-04-17T16:42:24.924Z,98813.31
2023-04-17T16:44:52.353Z,98813.09
2023-04-17T16:47:19.360Z,98817.61
2023-04-17T16:49:46.375Z,98816.05
2023-04-17T16:52:13.310Z,98817.80
2023-04-17T16:54:40.218Z,98822.13
2023-04-17T16:57:07.014Z,98819.30
2023-04-17T16:59:34.354Z,98824.90
2023-04-17T17:02:04.095Z,98824.39
2023-04-17T17:04:31.159Z,98829.21
2023-04-17T17:06:58.129Z,98831.70
2023-04-17T17:09:26.251Z,98831.14
2023-04-17T17:11:53.398Z,98826.48
2023-04-17T17:14:20.841Z,98833.34
2023-04-17T17:16:47.995Z,98831.44
2023-04-17T17:19:15.639Z,98835.48
2023-04-17T17:21:42.554Z,98835.86
2023-04-17T17:24:09.421Z,98835.23
2023-04-17T17:26:37.308Z,98839.13
2023-04-17T17:29:05.033Z,98835.98
2023-04-17T17:31:34.398Z,98839.48
2023-04-17T17:34:16.756Z,98839.86
2023-04-17T17:36:49.711Z,98841.94
2023-04-17T17:39:16.803Z,98841.77
2023-04-17T17:41:46.684Z,98844.53
2023-04-17T17:44:14.576Z,98840.89
2023-04-17T17:46:42.018Z,98845.89
2023-04-17T17:49:09.209Z,98845.19
2023-04-17T17:51:36.094Z,98850.94
2023-04-17T17:54:02.931Z,98848.86
2023-04-17T17:56:30.045Z,98854.01
2023-04-17T17:58:57.062Z,98852.02
2023-04-17T18:01:25.156Z,98853.73
2023-04-17T18:03:53.675Z,98856.11
2023-04-17T18:06:21.494Z,98856.27
2023-04-17T18:08:48.647Z,98860.16
2023-04-17T18:11:15.554Z,98862.61
2023-04-17T18:13:42.372Z,98865.30
2023-04-17T18:16:09.745Z,98867.48
2023-04-17T18:18:36.794Z,98868.80
2023-04-17T18:21:07.695Z,98873.29
2023-04-17T18:23:34.580Z,98875.17
2023-04-17T18:26:02.988Z,98873.98
2023-04-17T18:28:29.913Z,98877.63
2023-04-17T18:30:56.758Z,98875.03
2023-04-17T18:33:23.612Z,98875.89
2023-04-17T18:35:50.600Z,98878.89
2023-04-17T18:38:17.403Z,98875.64
2023-04-17T18:40:44.184Z,98879.54
2023-04-17T18:43:11.170Z,98877.83
2023-04-17T18:45:38.117Z,98879.41
2023-04-17T18:48:05.407Z,98876.46
2023-04-17T18:50:32.360Z,98874.30
2023-04-17T18:52:59.324Z,98879.28
2023-04-17T18:55:26.238Z,98878.79
2023-04-17T18:57:53.620Z,98881.34
2023-04-17T19:00:21.329Z,98877.75
2023-04-17T19:02:48.679Z,98879.11
2023-04-17T19:05:16.254Z,98879.81
2023-04-17T19:07:43.396Z,98878.19
2023-04-17T19:10:11.063Z,98876.63
2023-04-17T19:12:38.559Z,98875.73
2023-04-17T19:15:06.598Z,98874.88
2023-04-17T19:17:45.700Z,98877.13
2023-04-17T19:20:14.825Z,98879.41
2023-04-17T19:22:48.525Z,98877.27
2023-04-17T19:25:15.701Z,98875.21
2023-04-17T19:27:42.987Z,98873.46
2023-04-17T19:30:11.374Z,98875.76
2023-04-17T19:32:38.737Z,98875.17
2023-04-17T19:35:06.896Z,98875.48
2023-04-17T19:37:34.388Z,98871.08
2023-04-17T19:40:04.252Z,98873.02
2023-04-17T19:42:36.253Z,98873.64
2023-04-17T19:45:03.267Z,98873.56
2023-04-17T19:47:30.545Z,98874.00
2023-04-17T19:49:57.832Z,98872.48
2023-04-17T19:52:25.520Z,98871.23
2023-04-17T19:54:52.542Z,98868.86
2023-04-17T19:57:19.980Z,98873.48
2023-04-17T19:59:46.861Z,98874.48
2023-04-17T20:02:13.852Z,98869.58
2023-04-17T20:04:40.699Z,98873.17
2023-04-17T20:07:07.790Z,98877.77
2023-04-17T20:09:34.783Z,98872.92
2023-04-17T20:12:01.712Z,98871.98
2023-04-17T20:14:29.031Z,98865.63
2023-04-17T20:16:56.745Z,98861.47
2023-04-17T20:19:24.437Z,98863.88
2023-04-17T20:21:51.493Z,98861.36
2023-04-17T20:24:18.862Z,98864.84
2023-04-17T20:26:45.998Z,98861.19
2023-04-17T20:29:13.403Z,98862.77
2023-04-17T20:31:40.950Z,98858.60
2023-04-17T20:34:08.266Z,98860.01
2023-04-17T20:36:35.710Z,98860.69
2023-04-17T20:39:03.555Z,98859.08
2023-04-17T20:41:30.748Z,98858.19
2023-04-17T20:44:01.477Z,98857.77
2023-04-17T20:46:29.424Z,98852.79
2023-04-17T20:48:56.925Z,98856.29
2023-04-17T20:51:25.551Z,98856.05
2023-04-17T20:53:53.477Z,98858.53
2023-04-17T20:56:22.210Z,98861.01
2023-04-17T20:58:49.068Z,98862.59
2023-04-17T21:01:17.060Z,98862.05
2023-04-17T21:03:44.933Z,98860.12
2023-04-17T21:06:12.521Z,98864.17
2023-04-17T21:08:39.800Z,98870.52
2023-04-17T21:11:07.283Z,98865.93
2023-04-17T21:13:35.043Z,98863.90
2023-04-17T21:16:02.039Z,98866.77
2023-04-17T21:18:29.002Z,98864.46
2023-04-17T21:20:56.052Z,98870.38
2023-04-17T21:23:22.906Z,98863.02
2023-04-17T21:25:52.300Z,98861.98
2023-04-17T21:28:19.967Z,98857.30
2023-04-17T21:30:47.418Z,98857.55
2023-04-17T21:33:14.249Z,98857.48
2023-04-17T21:35:41.095Z,98853.77
2023-04-17T21:38:07.919Z,98856.77
2023-04-17T21:40:37.084Z,98855.45
2023-04-17T21:43:15.169Z,98850.99
2023-04-17T21:45:42.071Z,98851.92
2023-04-17T21:48:08.901Z,98850.70
2023-04-17T21:50:36.460Z,98854.23
2023-04-17T21:53:03.296Z,98848.64
2023-04-17T21:55:30.254Z,98852.04
2023-04-17T21:57:57.082Z,98853.41
2023-04-17T22:00:23.988Z,98853.08
2023-04-17T22:02:51.215Z,98848.54
2023-04-17T22:05:18.211Z,98848.30
2023-04-17T22:07:54.340Z,98846.58
2023-04-17T22:10:23.492Z,98849.98
2023-04-17T22:12:51.214Z,98846.14
2023-04-17T22:15:18.408Z,98847.77
2023-04-17T22:17:45.375Z,98844.92
2023-04-17T22:20:12.881Z,98843.64
2023-04-17T22:22:39.832Z,98846.00
2023-04-17T22:25:07.279Z,98850.98
2023-04-17T22:27:34.136Z,98845.88
2023-04-17T22:30:01.170Z,98852.34
2023-04-17T22:32:28.247Z,98850.38
2023-04-17T22:34:55.390Z,98847.72
2023-04-17T22:37:22.620Z,98844.95
2023-04-17T22:39:49.961Z,98842.48
2023-04-17T22:42:17.333Z,98843.04
2023-04-17T22:44:44.689Z,98841.84
2023-04-17T22:47:11.611Z,98842.61
2023-04-17T22:49:38.476Z,98841.80
2023-04-17T22:52:06.518Z,98839.46
2023-04-17T22:54:34.910Z,98844.08
2023-04-17T22:57:05.074Z,98842.41
2023-04-17T22:59:32.358Z,98847.63
2023-04-17T23:01:59.573Z,98847.87
2023-04-17T23:04:26.584Z,98844.27
2023-04-17T23:06:53.634Z,98845.33
2023-04-17T23:09:20.752Z,98840.64
2023-04-17T23:11:47.942Z,98843.70
2023-04-17T23:14:15.473Z,98838.82
2023-04-17T23:16:42.700Z,98835.13
2023-04-17T23:19:09.762Z,98833.14
2023-04-17T23:21:36.581Z,98833.21
2023-04-17T23:24:03.783Z,98834.11
2023-04-17T23:26:30.908Z,98832.02
2023-04-17T23:28:57.827Z,98831.39
2023-04-17T23:31:24.704Z,98830.86
2023-04-17T23:33:51.499Z,98831.95
2023-04-17T23:36:18.453Z,98828.52
2023-04-17T23:38:45.296Z,98828.61
2023-04-17T23:41:12.340Z,98828.79
2023-04-17T23:43:39.180Z,98828.79
2023-04-17T23:46:06.539Z,98829.31
2023-04-17T23:48:33.380Z,98826.73
2023-04-17T23:51:00.327Z,98823.30
2023-04-17T23:53:27.159Z,98822.68
2023-04-17T23:55:54.718Z,98823.34
2023-04-17T23:58:21.556Z,98819.52
